Monday, December 22, 2014
04:11 UTC
  |  Log In   |  Register Free
Airport Search:

Owatonna Degner Regional Airport
(KOWA)

Owatonna Degner Regional Airport Diagram
No Airport Diagram Available

FAA data valid effective November 13, 2014 - January 08, 2015 (unless otherwise noted).

 
 
 
 
 
 
 
 
 
 
 
 
 
 

Current Aviation Weather for Owatonna Degner Regional Airport (KOWA)

The most recent METAR observation for KOWA was updated at: 2117
METAR Summary (Translated METAR)
KOWA
182115Z AUTO 00000KT 7SM SCT016 M06/M09 A3023 RMK AO2
KFBL
182054Z AUTO 00000KT 10SM OVC017 M06/M09 A3025 RMK AO2
(12.5 nm NW from KOWA)
KACQ
182055Z AUTO 00000KT 7SM BKN014 M05/M08 A3025 RMK AO2
(13 nm SW from KOWA)
TAF
No TAF information found within 50 nm of KOWA
  Airport Weather Conditions for KOWA

 Current Weather at OWA
37° F
Light Rain
South winds at 16.1 mph
OWA NOAA Radar

Pressure: 29.73 in
Humidity: 93%
Wind: from the South at 16.1 gusting to 20.7 MPH (14 gusting to 18 KT)
Dew Point: 35.6°F
Visibility: 7.00 mi


Airport Weather Forecast for KOWA

Translated METAR and TAF for KOWA
Translated METAR for KOWA (0411 UTC 22 December 2014)
found at http://aviationweather.gov/adds/metars/
 
METAR text: KOWA 220355Z AUTO 16012G18KT 3SM BR OVC006 03/02 A2973 RMK AO2
Conditions at: KOWA (OWATONNA , MN, US) observed 0355 UTC 22 December 2014
Temperature: 3.0°C (37°F)
Dewpoint: 2.0°C (36°F) [RH = 93%]
Pressure (altimeter): 29.73 inches Hg (1006.9 mb)
Winds: from the SSE (160 degrees) at 14 MPH (12 knots; 6.2 m/s)
gusting to 21 MPH (18 knots; 9.4 m/s)
Visibility: 3 miles (5 km)
Ceiling: 600 feet AGL
Clouds: overcast cloud deck at 600 feet AGL
Weather: BR  (mist)
Translated TAF for KOWA

There is no translated TAF available for this airport

Find All Airport Services Find A Hotel Find A Rental Car Find A Golf Course Find A Restaurant $100 Hamburger



FBO's on the Field
FBO Company Facility Photos Services Transportation Aviation Fuel Prices: Prices include tax
Catering Weather Repair Courtesy Rental Type 100LL JetA JetA+ MOGAS 8087
 
Owatonna Degner Regional Airport

This FBO has not yet been rated
FS:Avfuel
Last Updated: Dec-05
Login to update fuel prices
SS:
Contact Owatonna Degner Regional AirportMore FBO Information
 
Add another FBO Facility Photos Catering Weather Repair Courtesy Rental Type 100LL JetA JetA+ MOGAS 8087
Services Transportation Aviation Fuel Prices: Prices include tax


model-print
model-print
model-print
model-print